createdAt,value
2018-09-30T00:00:55.925Z,4.25
2018-09-30T00:02:02.376Z,4.70
2018-09-30T00:03:07.123Z,4.50
2018-09-30T00:04:12.414Z,4.65
2018-09-30T00:05:16.920Z,4.95
2018-09-30T00:06:21.011Z,4.37
2018-09-30T00:07:25.265Z,4.00
2018-09-30T00:08:29.375Z,4.20
2018-09-30T00:09:33.538Z,3.77
2018-09-30T00:10:37.598Z,3.52
2018-09-30T00:11:41.745Z,4.40
2018-09-30T00:12:46.037Z,4.10
2018-09-30T00:13:50.661Z,4.08
2018-09-30T00:14:54.786Z,4.70
2018-09-30T00:15:58.970Z,4.22
2018-09-30T00:17:03.094Z,3.47
2018-09-30T00:18:08.201Z,3.92
2018-09-30T00:19:12.924Z,4.42
2018-09-30T00:20:17.026Z,4.12
2018-09-30T00:21:21.203Z,4.75
2018-09-30T00:22:25.234Z,4.25
2018-09-30T00:23:33.469Z,4.55
2018-09-30T00:24:42.951Z,4.65
2018-09-30T00:25:53.013Z,4.22
2018-09-30T00:26:57.394Z,4.12
2018-09-30T00:28:01.473Z,4.25
2018-09-30T00:29:05.604Z,4.53
2018-09-30T00:30:09.665Z,4.10
2018-09-30T00:31:15.334Z,4.72
2018-09-30T00:32:19.436Z,4.15
2018-09-30T00:33:26.550Z,4.35
2018-09-30T00:34:31.135Z,4.58
2018-09-30T00:35:35.853Z,4.50
2018-09-30T00:36:40.746Z,3.70
2018-09-30T00:37:44.971Z,3.95
2018-09-30T00:38:49.053Z,4.47
2018-09-30T00:39:53.102Z,3.77
2018-09-30T00:40:57.210Z,4.33
2018-09-30T00:42:01.325Z,4.60
2018-09-30T00:43:05.551Z,4.53
2018-09-30T00:44:09.925Z,4.28
2018-09-30T00:45:14.062Z,3.77
2018-09-30T00:46:19.853Z,4.78
2018-09-30T00:47:24.039Z,4.30
2018-09-30T00:48:28.176Z,4.40
2018-09-30T00:49:32.377Z,4.67
2018-09-30T00:50:36.729Z,4.45
2018-09-30T00:51:40.799Z,4.00
2018-09-30T00:52:44.933Z,3.83
2018-09-30T00:53:49.275Z,4.47
2018-09-30T00:54:54.050Z,4.65
2018-09-30T00:55:58.417Z,4.40
2018-09-30T00:57:02.537Z,4.20
2018-09-30T00:58:06.695Z,4.55
2018-09-30T00:59:11.773Z,4.08
2018-09-30T01:00:16.446Z,4.30
2018-09-30T01:01:20.604Z,4.05
2018-09-30T01:02:24.661Z,3.58
2018-09-30T01:03:28.812Z,3.65
2018-09-30T01:04:32.876Z,3.65
2018-09-30T01:05:37.004Z,5.03
2018-09-30T01:06:41.224Z,5.28
2018-09-30T01:07:45.304Z,3.72
2018-09-30T01:08:49.501Z,4.70
2018-09-30T01:09:53.723Z,4.97
2018-09-30T01:10:58.707Z,4.62
2018-09-30T01:12:02.760Z,4.55
2018-09-30T01:13:06.872Z,4.00
2018-09-30T01:14:11.084Z,3.72
2018-09-30T01:15:15.146Z,4.85
2018-09-30T01:16:19.869Z,4.42
2018-09-30T01:17:24.634Z,4.00
2018-09-30T01:18:28.757Z,3.83
2018-09-30T01:19:32.728Z,4.00
2018-09-30T01:20:36.887Z,5.12
2018-09-30T01:21:41.996Z,4.20
2018-09-30T01:22:46.169Z,4.45
2018-09-30T01:23:51.249Z,4.30
2018-09-30T01:24:55.248Z,3.52
2018-09-30T01:25:59.466Z,4.15
2018-09-30T01:27:03.596Z,4.30
2018-09-30T01:28:08.276Z,3.75
2018-09-30T01:29:13.605Z,4.65
2018-09-30T01:30:18.520Z,4.60
2018-09-30T01:31:22.715Z,3.92
2018-09-30T01:32:26.856Z,3.92
2018-09-30T01:33:31.956Z,4.28
2018-09-30T01:34:36.017Z,4.15
2018-09-30T01:35:40.628Z,4.62
2018-09-30T01:36:44.752Z,4.37
2018-09-30T01:37:49.736Z,4.40
2018-09-30T01:38:53.840Z,4.20
2018-09-30T01:39:58.934Z,3.75
2018-09-30T01:41:03.055Z,4.78
2018-09-30T01:42:07.265Z,3.92
2018-09-30T01:43:11.444Z,4.03
2018-09-30T01:44:15.529Z,4.22
2018-09-30T01:45:19.661Z,4.25
2018-09-30T01:46:23.743Z,3.55
2018-09-30T01:47:27.767Z,4.33
2018-09-30T01:48:35.637Z,5.17
2018-09-30T01:49:40.554Z,4.00
2018-09-30T01:50:44.637Z,3.90
2018-09-30T01:51:58.908Z,4.55
2018-09-30T01:53:02.961Z,4.65
2018-09-30T01:54:07.862Z,3.85
2018-09-30T01:55:13.357Z,4.28
2018-09-30T01:56:17.407Z,4.47
2018-09-30T01:57:22.159Z,3.92
2018-09-30T01:58:26.291Z,4.45
2018-09-30T01:59:30.354Z,4.65
2018-09-30T02:00:34.668Z,3.87
2018-09-30T02:01:38.706Z,3.70
2018-09-30T02:02:44.105Z,4.08
2018-09-30T02:03:49.502Z,3.70
2018-09-30T02:04:53.768Z,3.47
2018-09-30T02:05:57.868Z,3.37
2018-09-30T02:07:01.941Z,3.75
2018-09-30T02:09:32.130Z,3.85
2018-09-30T02:10:36.162Z,3.90
2018-09-30T02:11:40.299Z,3.70
2018-09-30T02:12:44.462Z,3.67
2018-09-30T02:13:48.530Z,3.77
2018-09-30T02:14:53.272Z,3.85
2018-09-30T02:15:57.447Z,3.22
2018-09-30T02:17:02.427Z,3.67
2018-09-30T02:18:06.710Z,3.98
2018-09-30T02:19:12.305Z,3.80
2018-09-30T02:20:17.068Z,3.02
2018-09-30T02:21:23.619Z,3.77
2018-09-30T02:22:28.904Z,5.22
2018-09-30T02:23:33.823Z,3.77
2018-09-30T02:24:37.933Z,3.58
2018-09-30T02:25:42.037Z,3.30
2018-09-30T02:26:46.170Z,3.70
2018-09-30T02:27:51.418Z,3.52
2018-09-30T02:28:55.936Z,3.45
2018-09-30T02:30:00.350Z,3.47
2018-09-30T02:31:06.082Z,3.92
2018-09-30T02:32:11.089Z,3.50
2018-09-30T02:33:15.243Z,3.92
2018-09-30T02:34:19.477Z,4.00
2018-09-30T02:35:24.590Z,6.03
2018-09-30T02:36:28.691Z,4.83
2018-09-30T02:37:32.694Z,4.45
2018-09-30T02:38:36.840Z,4.12
2018-09-30T02:39:40.952Z,3.85
2018-09-30T02:40:44.989Z,3.60
2018-09-30T02:41:51.401Z,3.17
2018-09-30T02:42:56.686Z,3.40
2018-09-30T02:44:00.787Z,4.65
2018-09-30T02:45:05.095Z,3.30
2018-09-30T02:46:09.280Z,3.62
2018-09-30T02:47:14.447Z,3.67
2018-09-30T02:48:20.304Z,3.00
2018-09-30T02:49:24.539Z,4.20
2018-09-30T02:50:28.732Z,3.60
2018-09-30T02:51:32.971Z,3.70
2018-09-30T02:52:36.999Z,3.45
2018-09-30T02:53:42.017Z,3.60
2018-09-30T02:54:47.156Z,4.15
2018-09-30T02:55:52.684Z,4.22
2018-09-30T02:56:57.585Z,3.20
2018-09-30T02:58:02.824Z,3.92
2018-09-30T02:59:07.986Z,4.67
2018-09-30T03:00:12.286Z,3.62
2018-09-30T03:01:16.364Z,3.50
2018-09-30T03:02:20.434Z,4.37
2018-09-30T03:03:24.568Z,3.87
2018-09-30T03:04:28.621Z,4.35
2018-09-30T03:05:32.775Z,4.25
2018-09-30T03:06:42.934Z,3.95
2018-09-30T03:07:52.299Z,4.67
2018-09-30T03:09:01.835Z,3.92
2018-09-30T03:10:06.716Z,3.80
2018-09-30T03:11:11.945Z,4.25
2018-09-30T03:12:16.087Z,4.00
2018-09-30T03:13:20.156Z,3.90
2018-09-30T03:14:24.646Z,4.37
2018-09-30T03:15:29.261Z,5.12
2018-09-30T03:16:35.173Z,4.22
2018-09-30T03:17:39.209Z,4.70
2018-09-30T03:18:43.294Z,4.60
2018-09-30T03:19:47.967Z,4.80
2018-09-30T03:20:52.128Z,4.70
2018-09-30T03:21:56.192Z,4.45
2018-09-30T03:23:00.308Z,5.10
2018-09-30T03:24:05.384Z,4.72
2018-09-30T03:25:09.521Z,4.22
2018-09-30T03:26:14.617Z,4.42
2018-09-30T03:27:19.634Z,4.25
2018-09-30T03:28:23.724Z,4.40
2018-09-30T03:29:27.809Z,4.53
2018-09-30T03:30:32.049Z,4.87
2018-09-30T03:31:36.161Z,6.53
2018-09-30T03:32:40.320Z,4.60
2018-09-30T03:33:45.297Z,5.05
2018-09-30T03:34:49.412Z,5.15
2018-09-30T03:35:54.864Z,5.28
2018-09-30T03:36:59.442Z,5.17
2018-09-30T03:38:03.714Z,5.40
2018-09-30T03:39:08.915Z,5.95
2018-09-30T03:40:13.660Z,5.42
2018-09-30T03:41:19.077Z,6.03
2018-09-30T03:42:23.127Z,6.28
2018-09-30T03:43:27.810Z,4.92
2018-09-30T03:44:31.927Z,5.50
2018-09-30T03:45:36.016Z,5.40
2018-09-30T03:46:40.097Z,5.80
2018-09-30T03:47:44.172Z,5.25
2018-09-30T03:48:49.292Z,5.80
2018-09-30T03:49:54.056Z,5.62
2018-09-30T03:50:58.145Z,5.37
2018-09-30T03:52:02.224Z,6.10
2018-09-30T03:53:07.360Z,5.35
2018-09-30T03:54:11.491Z,5.55
2018-09-30T03:55:17.272Z,4.97
2018-09-30T03:56:21.441Z,5.90
2018-09-30T03:57:25.628Z,5.12
2018-09-30T03:58:29.831Z,5.90
2018-09-30T03:59:33.951Z,5.20
2018-09-30T04:00:38.142Z,5.50
2018-09-30T04:01:42.237Z,5.50
2018-09-30T04:02:48.101Z,5.05
2018-09-30T04:03:52.440Z,5.00
2018-09-30T04:04:56.505Z,5.83
2018-09-30T04:06:00.642Z,5.03
2018-09-30T04:07:04.697Z,5.00
2018-09-30T04:08:09.380Z,5.25
2018-09-30T04:09:13.413Z,4.85
2018-09-30T04:10:18.029Z,5.10
2018-09-30T04:11:22.903Z,4.85
2018-09-30T04:12:26.961Z,4.70
2018-09-30T04:13:31.062Z,5.20
2018-09-30T04:14:35.189Z,4.72
2018-09-30T04:15:39.544Z,4.72
2018-09-30T04:16:43.579Z,4.45
2018-09-30T04:17:47.656Z,3.98
2018-09-30T04:18:52.731Z,4.70
2018-09-30T04:19:56.811Z,3.87
2018-09-30T04:21:02.577Z,5.50
2018-09-30T04:22:06.832Z,4.85
2018-09-30T04:23:10.998Z,4.95
2018-09-30T04:24:15.686Z,4.67
2018-09-30T04:25:20.052Z,4.22
2018-09-30T04:26:25.039Z,4.42
2018-09-30T04:27:29.165Z,4.65
2018-09-30T04:28:33.390Z,4.60
2018-09-30T04:29:37.453Z,5.10
2018-09-30T04:30:41.613Z,4.83
2018-09-30T04:31:45.672Z,4.65
2018-09-30T04:32:50.906Z,4.97
2018-09-30T04:33:55.062Z,6.42
2018-09-30T04:34:59.264Z,4.65
2018-09-30T04:36:03.376Z,4.10
2018-09-30T04:37:07.448Z,4.20
2018-09-30T04:38:11.579Z,4.37
2018-09-30T04:39:15.711Z,4.20
2018-09-30T04:40:20.465Z,3.98
2018-09-30T04:41:24.708Z,4.75
2018-09-30T04:42:28.800Z,4.20
2018-09-30T04:43:32.810Z,4.17
2018-09-30T04:44:37.696Z,4.80
2018-09-30T04:45:41.856Z,3.90
2018-09-30T04:46:46.057Z,3.60
2018-09-30T04:47:50.939Z,4.90
2018-09-30T04:48:54.950Z,4.80
2018-09-30T04:49:59.856Z,4.60
2018-09-30T04:51:03.940Z,4.60
2018-09-30T04:52:08.003Z,4.20
2018-09-30T04:53:12.607Z,4.05
2018-09-30T04:54:16.808Z,4.50
2018-09-30T04:55:21.619Z,4.47
2018-09-30T04:56:25.781Z,4.65
2018-09-30T04:57:30.154Z,4.75
2018-09-30T04:58:35.158Z,3.83
2018-09-30T04:59:40.798Z,4.03
2018-09-30T05:00:44.823Z,4.30
2018-09-30T05:01:48.922Z,4.12
2018-09-30T05:02:52.988Z,3.87
2018-09-30T05:03:57.161Z,4.33
2018-09-30T05:05:01.308Z,3.77
2018-09-30T05:06:05.479Z,4.30
2018-09-30T05:07:09.667Z,3.95
2018-09-30T05:08:13.844Z,4.00
2018-09-30T05:09:18.625Z,4.60
2018-09-30T05:10:22.702Z,4.12
2018-09-30T05:11:26.948Z,4.10
2018-09-30T05:12:31.009Z,6.33
2018-09-30T05:13:35.800Z,4.42
2018-09-30T05:14:39.937Z,4.75
2018-09-30T05:15:45.265Z,4.65
2018-09-30T05:16:51.146Z,4.25
2018-09-30T05:17:55.968Z,5.50
2018-09-30T05:19:00.391Z,4.53
2018-09-30T05:20:05.112Z,4.50
2018-09-30T05:21:10.162Z,4.25
2018-09-30T05:22:14.299Z,4.70
2018-09-30T05:23:18.541Z,4.42
2018-09-30T05:24:22.674Z,4.45
2018-09-30T05:25:26.816Z,4.67
2018-09-30T05:26:30.921Z,4.65
2018-09-30T05:27:35.864Z,4.50
2018-09-30T05:28:41.214Z,4.62
2018-09-30T05:29:45.442Z,6.05
2018-09-30T05:30:50.558Z,4.10
2018-09-30T05:31:54.723Z,4.15
2018-09-30T05:32:59.111Z,4.87
2018-09-30T05:34:03.287Z,4.30
2018-09-30T05:35:07.713Z,3.80
2018-09-30T05:36:12.418Z,4.50
2018-09-30T05:37:17.640Z,5.05
2018-09-30T05:38:21.746Z,5.03
2018-09-30T05:39:25.913Z,4.87
2018-09-30T05:40:30.047Z,4.10
2018-09-30T05:41:34.842Z,3.65
2018-09-30T05:42:38.936Z,4.37
2018-09-30T05:43:43.025Z,3.98
2018-09-30T05:44:47.785Z,4.40
2018-09-30T05:45:51.908Z,4.22
2018-09-30T05:46:56.072Z,4.25
2018-09-30T05:48:00.374Z,3.70
2018-09-30T05:49:04.970Z,4.90
2018-09-30T05:50:09.168Z,4.95
2018-09-30T05:51:13.790Z,4.08
2018-09-30T05:52:24.790Z,4.30
2018-09-30T05:53:29.897Z,3.90
2018-09-30T05:54:34.025Z,3.95
2018-09-30T05:55:38.592Z,6.33
2018-09-30T05:56:44.705Z,4.70
2018-09-30T05:57:49.203Z,4.05
2018-09-30T05:58:54.583Z,4.55
2018-09-30T05:59:58.633Z,4.65
2018-09-30T06:01:02.737Z,3.60
2018-09-30T06:02:07.725Z,3.62
2018-09-30T06:03:11.918Z,4.35
2018-09-30T06:04:16.115Z,4.22
2018-09-30T06:05:20.157Z,4.60
2018-09-30T06:06:24.444Z,4.33
2018-09-30T06:07:28.602Z,4.45
2018-09-30T06:08:33.422Z,4.37
2018-09-30T06:09:37.511Z,4.20
2018-09-30T06:10:43.074Z,4.30
2018-09-30T06:11:47.804Z,4.45
2018-09-30T06:12:51.887Z,4.35
2018-09-30T06:13:56.854Z,3.95
2018-09-30T06:15:02.894Z,4.37
2018-09-30T06:16:07.119Z,3.70
2018-09-30T06:17:12.044Z,3.95
2018-09-30T06:18:18.132Z,3.83
2018-09-30T06:19:23.167Z,3.87
2018-09-30T06:20:28.842Z,7.30
2018-09-30T06:21:32.846Z,4.42
2018-09-30T06:22:37.882Z,3.90
2018-09-30T06:23:42.096Z,4.20
2018-09-30T06:24:46.159Z,4.55
2018-09-30T06:25:50.252Z,4.80
2018-09-30T06:26:54.400Z,3.95
2018-09-30T06:27:59.129Z,4.33
2018-09-30T06:29:04.111Z,4.40
2018-09-30T06:30:08.346Z,4.55
2018-09-30T06:31:12.512Z,4.65
2018-09-30T06:32:16.705Z,4.45
2018-09-30T06:33:22.005Z,4.05
2018-09-30T06:34:26.160Z,3.75
2018-09-30T06:35:31.295Z,4.50
2018-09-30T06:36:35.457Z,3.45
2018-09-30T06:37:39.508Z,4.30
2018-09-30T06:38:43.729Z,4.08
2018-09-30T06:39:47.820Z,4.03
2018-09-30T06:40:51.899Z,4.65
2018-09-30T06:41:56.050Z,4.28
2018-09-30T06:43:00.989Z,4.37
2018-09-30T06:44:05.282Z,3.87
2018-09-30T06:45:09.700Z,3.95
2018-09-30T06:46:13.750Z,4.72
2018-09-30T06:47:20.219Z,4.30
2018-09-30T06:48:24.277Z,4.17
2018-09-30T06:49:28.494Z,4.33
2018-09-30T06:50:33.116Z,4.22
2018-09-30T06:51:38.004Z,3.95
2018-09-30T06:52:42.690Z,3.90
2018-09-30T06:53:46.924Z,5.15
2018-09-30T06:54:51.118Z,3.85
2018-09-30T06:55:55.213Z,4.55
2018-09-30T06:56:59.465Z,4.00
2018-09-30T06:58:03.561Z,4.33
2018-09-30T06:59:08.344Z,4.70
2018-09-30T07:00:12.409Z,4.15
2018-09-30T07:01:17.194Z,3.72
2018-09-30T07:02:21.287Z,3.95
2018-09-30T07:03:25.449Z,4.80
2018-09-30T07:04:29.533Z,5.33
2018-09-30T07:05:33.677Z,5.55
2018-09-30T07:06:37.954Z,4.55
2018-09-30T07:07:42.617Z,4.65
2018-09-30T07:08:46.786Z,4.35
2018-09-30T07:09:50.888Z,4.62
2018-09-30T07:10:55.672Z,5.08
2018-09-30T07:11:59.685Z,5.30
2018-09-30T07:13:04.712Z,4.33
2018-09-30T07:14:08.771Z,4.75
2018-09-30T07:15:13.028Z,5.37
2018-09-30T07:16:17.252Z,5.03
2018-09-30T07:17:21.925Z,4.22
2018-09-30T07:18:26.086Z,5.17
2018-09-30T07:19:31.485Z,4.50
2018-09-30T07:20:35.943Z,4.53
2018-09-30T07:21:40.169Z,4.42
2018-09-30T07:22:45.194Z,4.37
2018-09-30T07:23:50.338Z,4.80
2018-09-30T07:24:54.452Z,4.60
2018-09-30T07:25:58.588Z,4.40
2018-09-30T07:27:05.114Z,5.03
2018-09-30T07:28:09.314Z,4.78
2018-09-30T07:29:13.481Z,4.35
2018-09-30T07:30:17.546Z,4.05
2018-09-30T07:31:21.614Z,4.53
2018-09-30T07:32:26.593Z,6.15
2018-09-30T07:33:30.607Z,4.67
2018-09-30T07:34:34.852Z,5.65
2018-09-30T07:35:38.969Z,5.03
2018-09-30T07:36:43.026Z,6.10
2018-09-30T07:37:47.263Z,4.53
2018-09-30T07:38:52.147Z,5.60
2018-09-30T07:39:56.286Z,4.95
2018-09-30T07:41:00.776Z,5.65
2018-09-30T07:42:04.923Z,5.12
2018-09-30T07:43:10.647Z,5.78
2018-09-30T07:44:15.501Z,5.80
2018-09-30T07:45:20.330Z,5.25
2018-09-30T07:46:24.469Z,6.05
2018-09-30T07:47:29.818Z,5.87
2018-09-30T07:48:33.903Z,5.45
2018-09-30T07:49:38.029Z,5.85
2018-09-30T07:50:42.151Z,5.80
2018-09-30T07:51:46.389Z,5.70
2018-09-30T07:52:50.605Z,5.75
2018-09-30T07:53:55.326Z,4.80
2018-09-30T07:54:59.372Z,5.70
2018-09-30T07:56:04.633Z,6.03
2018-09-30T07:57:08.817Z,5.30
2018-09-30T07:58:13.458Z,6.15
2018-09-30T07:59:17.631Z,5.50
2018-09-30T08:00:21.814Z,5.35
2018-09-30T08:01:27.203Z,5.45
2018-09-30T08:02:31.255Z,5.62
2018-09-30T08:03:36.494Z,5.67
2018-09-30T08:04:41.205Z,5.60
2018-09-30T08:05:45.568Z,5.65
2018-09-30T08:06:50.638Z,6.15
2018-09-30T08:07:54.745Z,5.67
2018-09-30T08:08:58.850Z,5.45
2018-09-30T08:10:02.833Z,5.97
2018-09-30T08:11:07.000Z,4.72
2018-09-30T08:12:11.084Z,6.47
2018-09-30T08:13:15.858Z,5.00
2018-09-30T08:14:19.867Z,5.40
2018-09-30T08:15:23.909Z,5.17
2018-09-30T08:16:28.144Z,5.03
2018-09-30T08:17:32.932Z,7.15
2018-09-30T08:18:37.754Z,5.60
2018-09-30T08:19:42.787Z,5.10
2018-09-30T08:20:47.617Z,6.05
2018-09-30T08:21:52.350Z,5.58
2018-09-30T08:22:56.551Z,5.72
2018-09-30T08:24:00.744Z,6.58
2018-09-30T08:25:05.101Z,6.62
2018-09-30T08:26:14.049Z,6.08
2018-09-30T08:27:18.785Z,6.08
2018-09-30T08:28:25.557Z,5.60
2018-09-30T08:29:29.895Z,6.45
2018-09-30T08:30:34.119Z,6.20
2018-09-30T08:31:39.144Z,6.30
2018-09-30T08:32:50.265Z,6.28
2018-09-30T08:33:54.786Z,6.87
2018-09-30T08:34:59.880Z,7.33
2018-09-30T08:36:06.077Z,7.33
2018-09-30T08:37:10.285Z,6.40
2018-09-30T08:38:19.972Z,6.25
2018-09-30T08:39:24.121Z,6.47
2018-09-30T08:40:33.795Z,6.05
2018-09-30T08:41:38.728Z,6.90
2018-09-30T08:42:43.631Z,6.97
2018-09-30T08:43:47.737Z,6.37
2018-09-30T08:44:51.869Z,6.72
2018-09-30T08:45:56.432Z,6.33
2018-09-30T08:47:00.734Z,6.25
2018-09-30T08:48:04.750Z,6.08
2018-09-30T08:49:09.748Z,6.65
2018-09-30T08:50:14.615Z,5.97
2018-09-30T08:51:19.581Z,6.60
2018-09-30T08:52:24.267Z,6.40
2018-09-30T08:53:28.513Z,5.80
2018-09-30T08:54:32.621Z,6.62
2018-09-30T08:55:36.987Z,6.47
2018-09-30T08:56:41.342Z,6.35
2018-09-30T08:57:45.507Z,8.25
2018-09-30T08:58:49.743Z,6.17
2018-09-30T08:59:54.320Z,5.78
2018-09-30T09:00:59.387Z,5.60
2018-09-30T09:02:03.582Z,5.78
2018-09-30T09:03:07.901Z,5.20
2018-09-30T09:04:11.960Z,6.15
2018-09-30T09:05:16.093Z,5.15
2018-09-30T09:06:20.165Z,5.33
2018-09-30T09:07:24.300Z,4.78
2018-09-30T09:08:28.408Z,7.10
2018-09-30T09:09:32.434Z,5.50
2018-09-30T09:10:37.429Z,5.42
2018-09-30T09:11:41.496Z,5.50
2018-09-30T09:12:45.559Z,5.53
2018-09-30T09:13:49.727Z,6.62
2018-09-30T09:14:54.447Z,6.10
2018-09-30T09:15:58.544Z,7.20
2018-09-30T09:17:02.699Z,5.97
2018-09-30T09:18:07.387Z,6.87
2018-09-30T09:19:11.612Z,6.00
2018-09-30T09:20:15.750Z,7.17
2018-09-30T09:21:21.699Z,5.60
2018-09-30T09:22:25.787Z,6.62
2018-09-30T09:23:29.824Z,6.55
2018-09-30T09:24:33.987Z,5.87
2018-09-30T09:25:38.358Z,7.30
2018-09-30T09:26:42.815Z,7.25
2018-09-30T09:27:46.868Z,7.20
2018-09-30T09:28:51.002Z,7.42
2018-09-30T09:29:55.026Z,8.15
2018-09-30T09:30:59.169Z,8.30
2018-09-30T09:32:03.287Z,7.75
2018-09-30T09:33:07.840Z,7.85
2018-09-30T09:34:11.892Z,8.53
2018-09-30T09:35:16.091Z,7.75
2018-09-30T09:36:21.782Z,7.97
2018-09-30T09:37:25.844Z,6.65
2018-09-30T09:38:30.043Z,6.40
2018-09-30T09:39:34.081Z,6.10
2018-09-30T09:40:38.162Z,4.55
2018-09-30T09:41:42.266Z,4.40
2018-09-30T09:42:46.469Z,4.33
2018-09-30T09:43:52.947Z,4.78
2018-09-30T09:44:57.020Z,4.42
2018-09-30T09:46:01.103Z,4.22
2018-09-30T09:47:06.108Z,4.37
2018-09-30T09:48:10.783Z,4.47
2018-09-30T09:49:15.281Z,5.12
2018-09-30T09:50:20.467Z,4.58
2018-09-30T09:51:24.534Z,4.28
2018-09-30T09:52:28.708Z,5.03
2018-09-30T09:53:34.020Z,4.53
2018-09-30T09:54:38.733Z,5.00
2018-09-30T09:55:43.603Z,5.47
2018-09-30T09:56:47.883Z,4.90
2018-09-30T09:57:52.021Z,5.15
2018-09-30T09:58:56.181Z,4.70
2018-09-30T10:00:00.388Z,5.85
2018-09-30T10:01:05.862Z,5.78
2018-09-30T10:02:10.508Z,4.72
2018-09-30T10:03:16.260Z,5.35
2018-09-30T10:04:20.428Z,4.83
2018-09-30T10:05:27.580Z,4.90
2018-09-30T10:06:31.699Z,5.80
2018-09-30T10:07:35.787Z,5.28
2018-09-30T10:08:40.101Z,5.33
2018-09-30T10:09:44.272Z,5.72
2018-09-30T10:10:49.502Z,5.20
2018-09-30T10:11:53.606Z,4.62
2018-09-30T10:12:57.910Z,5.60
2018-09-30T10:14:02.628Z,5.42
2018-09-30T10:15:06.864Z,5.10
2018-09-30T10:16:12.191Z,5.30
2018-09-30T10:17:16.840Z,5.15
2018-09-30T10:18:20.919Z,5.40
2018-09-30T10:19:25.125Z,5.80
2018-09-30T10:20:29.196Z,4.92
2018-09-30T10:21:33.352Z,4.80
2018-09-30T10:22:37.621Z,5.03
2018-09-30T10:23:41.681Z,4.70
2018-09-30T10:24:46.094Z,5.25
2018-09-30T10:25:50.221Z,5.25
2018-09-30T10:26:54.864Z,5.30
2018-09-30T10:27:59.869Z,5.20
2018-09-30T10:29:04.067Z,5.80
2018-09-30T10:30:08.267Z,5.20
2018-09-30T10:31:12.338Z,6.67
2018-09-30T10:32:16.456Z,5.60
2018-09-30T10:33:20.539Z,4.87
2018-09-30T10:34:24.641Z,4.67
2018-09-30T10:35:28.863Z,5.58
2018-09-30T10:36:33.093Z,5.90
2018-09-30T10:37:37.267Z,5.45
2018-09-30T10:38:41.476Z,5.72
2018-09-30T10:39:46.011Z,4.97
2018-09-30T10:40:50.956Z,4.85
2018-09-30T10:41:55.093Z,6.33
2018-09-30T10:43:00.637Z,5.53
2018-09-30T10:44:04.700Z,5.45
2018-09-30T10:45:09.657Z,5.15
2018-09-30T10:46:14.645Z,6.55
2018-09-30T10:47:18.710Z,5.17
2018-09-30T10:48:22.916Z,5.92
2018-09-30T10:49:26.998Z,7.20
2018-09-30T10:50:31.205Z,5.40
2018-09-30T10:51:36.495Z,5.97
2018-09-30T10:52:40.728Z,4.92
2018-09-30T10:53:44.878Z,6.55
2018-09-30T10:54:49.013Z,5.67
2018-09-30T10:55:53.962Z,5.50
2018-09-30T10:56:58.363Z,5.65
2018-09-30T10:58:03.340Z,5.55
2018-09-30T10:59:08.486Z,5.22
2018-09-30T11:00:13.853Z,6.40
2018-09-30T11:01:17.959Z,5.40
2018-09-30T11:02:23.964Z,5.78
2018-09-30T11:03:28.224Z,5.12
2018-09-30T11:04:32.452Z,6.50
2018-09-30T11:05:36.572Z,4.70
2018-09-30T11:06:40.716Z,6.47
2018-09-30T11:07:44.863Z,5.40
2018-09-30T11:08:49.047Z,5.55
2018-09-30T11:09:53.932Z,4.72
2018-09-30T11:10:59.668Z,5.78
2018-09-30T11:12:04.372Z,5.62
2018-09-30T11:13:09.105Z,5.17
2018-09-30T11:14:13.282Z,4.60
2018-09-30T11:15:18.355Z,5.20
2018-09-30T11:16:23.341Z,5.00
2018-09-30T11:17:27.392Z,5.10
2018-09-30T11:18:31.560Z,4.85
2018-09-30T11:19:36.513Z,4.28
2018-09-30T11:20:40.790Z,5.37
2018-09-30T11:21:45.046Z,5.80
2018-09-30T11:22:49.916Z,4.95
2018-09-30T11:23:53.985Z,4.65
2018-09-30T11:24:58.157Z,4.80
2018-09-30T11:26:02.259Z,4.53
2018-09-30T11:27:06.502Z,4.20
2018-09-30T11:28:11.271Z,5.42
2018-09-30T11:29:15.392Z,4.80
2018-09-30T11:30:19.518Z,5.50
2018-09-30T11:31:23.688Z,4.20
2018-09-30T11:32:28.357Z,5.05
2018-09-30T11:33:32.583Z,4.08
2018-09-30T11:34:36.606Z,4.25
2018-09-30T11:35:40.921Z,4.17
2018-09-30T11:36:46.814Z,4.00
2018-09-30T11:37:52.662Z,3.83
2018-09-30T11:38:57.073Z,4.08
2018-09-30T11:40:01.499Z,3.92
2018-09-30T11:41:05.593Z,4.00
2018-09-30T11:42:10.336Z,3.62
2018-09-30T11:43:15.246Z,3.45
2018-09-30T11:44:20.135Z,3.95
2018-09-30T11:45:24.352Z,3.37
2018-09-30T11:46:28.555Z,3.65
2018-09-30T11:47:32.589Z,3.65
2018-09-30T11:48:36.668Z,3.87
2018-09-30T11:49:41.657Z,3.65
2018-09-30T11:50:45.777Z,3.85
2018-09-30T11:51:51.917Z,3.30
2018-09-30T11:52:57.181Z,3.35
2018-09-30T11:54:01.353Z,3.77
2018-09-30T11:55:05.474Z,3.35
2018-09-30T11:56:09.690Z,3.17
2018-09-30T11:57:15.117Z,4.03
2018-09-30T11:58:19.253Z,3.80
2018-09-30T11:59:24.154Z,4.28
2018-09-30T12:00:29.326Z,3.25
2018-09-30T12:01:33.416Z,3.30
2018-09-30T12:02:39.402Z,3.35
2018-09-30T12:03:43.515Z,3.05
2018-09-30T12:04:47.619Z,3.40
2018-09-30T12:05:51.711Z,3.45
2018-09-30T12:06:55.811Z,2.90
2018-09-30T12:07:59.919Z,3.75
2018-09-30T12:09:07.354Z,3.60
2018-09-30T12:10:11.949Z,3.05
2018-09-30T12:11:17.039Z,3.08
2018-09-30T12:12:21.246Z,4.10
2018-09-30T12:13:27.105Z,3.92
2018-09-30T12:14:31.234Z,4.42
2018-09-30T12:15:35.309Z,5.08
2018-09-30T12:16:39.468Z,4.00
2018-09-30T12:17:43.516Z,4.15
2018-09-30T12:18:47.665Z,4.55
2018-09-30T12:19:52.054Z,6.37
2018-09-30T12:20:56.234Z,7.28
2018-09-30T12:22:00.407Z,5.97
2018-09-30T12:23:04.595Z,7.45
2018-09-30T12:24:08.729Z,7.08
2018-09-30T12:25:13.832Z,7.50
2018-09-30T12:26:17.971Z,6.50
2018-09-30T12:27:22.065Z,6.45
2018-09-30T12:28:26.165Z,6.28
2018-09-30T12:29:30.967Z,6.60
2018-09-30T12:30:36.256Z,6.53
2018-09-30T12:31:41.015Z,6.80
2018-09-30T12:32:45.199Z,6.62
2018-09-30T12:33:49.253Z,6.08
2018-09-30T12:34:53.486Z,5.72
2018-09-30T12:35:58.427Z,6.33
2018-09-30T12:37:02.478Z,5.80
2018-09-30T12:38:06.714Z,6.70
2018-09-30T12:39:12.143Z,6.20
2018-09-30T12:40:17.204Z,5.25
2018-09-30T12:41:22.054Z,5.75
2018-09-30T12:42:26.096Z,5.60
2018-09-30T12:43:31.048Z,5.20
2018-09-30T12:44:36.033Z,5.37
2018-09-30T12:45:40.087Z,5.25
2018-09-30T12:46:44.292Z,6.20
2018-09-30T12:47:49.020Z,6.75
2018-09-30T12:48:53.085Z,5.40
2018-09-30T12:49:57.174Z,5.67
2018-09-30T12:51:01.325Z,5.25
2018-09-30T12:52:05.433Z,4.62
2018-09-30T12:53:09.595Z,4.00
2018-09-30T12:54:13.737Z,3.20
2018-09-30T12:55:17.777Z,3.00
2018-09-30T12:56:22.701Z,3.80
2018-09-30T12:57:27.145Z,3.42
2018-09-30T12:58:31.229Z,2.92
2018-09-30T12:59:36.900Z,3.00
2018-09-30T13:00:40.890Z,2.45
2018-09-30T13:01:45.125Z,2.83
2018-09-30T13:02:49.289Z,3.00
2018-09-30T13:03:53.315Z,2.60
2018-09-30T13:04:57.470Z,2.55
2018-09-30T13:06:01.741Z,2.70
2018-09-30T13:07:05.958Z,2.75
2018-09-30T13:08:10.038Z,3.22
2018-09-30T13:09:14.357Z,3.17
2018-09-30T13:10:19.514Z,2.90
2018-09-30T13:11:24.712Z,3.52
2018-09-30T13:12:29.696Z,3.35
2018-09-30T13:13:33.920Z,3.02
2018-09-30T13:14:38.087Z,3.70
2018-09-30T13:15:42.298Z,3.30
2018-09-30T13:16:46.470Z,3.50
2018-09-30T13:17:50.525Z,3.40
2018-09-30T13:18:54.716Z,2.80
2018-09-30T13:19:59.548Z,2.70
2018-09-30T13:21:04.336Z,3.50
2018-09-30T13:22:08.427Z,3.80
2018-09-30T13:23:12.811Z,2.90
2018-09-30T13:24:17.041Z,4.40
2018-09-30T13:25:21.153Z,2.80
2018-09-30T13:26:25.416Z,3.22
2018-09-30T13:27:29.428Z,3.12
2018-09-30T13:28:33.575Z,3.22
2018-09-30T13:29:38.508Z,3.52
2018-09-30T13:30:43.290Z,3.72
2018-09-30T13:31:47.357Z,3.72
2018-09-30T13:32:53.647Z,3.77
2018-09-30T13:33:58.957Z,3.62
2018-09-30T13:35:03.556Z,3.90
2018-09-30T13:36:08.179Z,5.20
2018-09-30T13:37:12.384Z,3.60
2018-09-30T13:38:16.430Z,3.10
2018-09-30T13:39:20.713Z,3.22
2018-09-30T13:40:26.625Z,3.15
2018-09-30T13:41:32.212Z,2.95
2018-09-30T13:42:36.263Z,3.35
2018-09-30T13:43:40.382Z,3.37
2018-09-30T13:44:44.722Z,3.05
2018-09-30T13:45:50.096Z,3.65
2018-09-30T13:46:54.146Z,2.77
2018-09-30T13:47:58.209Z,2.90
2018-09-30T13:49:02.350Z,4.03
2018-09-30T13:50:07.832Z,3.70
2018-09-30T13:51:13.038Z,4.17
2018-09-30T13:52:18.248Z,3.12
2018-09-30T13:53:22.873Z,3.40
2018-09-30T13:54:26.946Z,3.72
2018-09-30T13:55:31.946Z,3.47
2018-09-30T13:56:36.060Z,3.50
2018-09-30T13:57:41.294Z,5.40
2018-09-30T13:58:46.449Z,4.80
2018-09-30T13:59:51.431Z,4.30
2018-09-30T14:00:56.436Z,4.28
2018-09-30T14:02:01.538Z,4.75
2018-09-30T14:03:07.236Z,3.77
2018-09-30T14:04:11.915Z,4.28
2018-09-30T14:05:16.712Z,3.90
2018-09-30T14:06:20.858Z,5.35
2018-09-30T14:07:25.170Z,4.00
2018-09-30T14:08:29.473Z,5.50
2018-09-30T14:09:34.025Z,5.53
2018-09-30T14:10:38.620Z,3.67
2018-09-30T14:11:43.016Z,3.67
2018-09-30T14:12:47.389Z,4.42
2018-09-30T14:13:52.308Z,3.65
2018-09-30T14:14:57.245Z,3.87
2018-09-30T14:16:02.203Z,4.03
2018-09-30T14:17:07.595Z,3.60
2018-09-30T14:18:12.460Z,3.92
2018-09-30T14:19:17.266Z,4.12
2018-09-30T14:20:21.250Z,3.83
2018-09-30T14:21:25.369Z,3.75